Time;durP1;ratioP1;P1;durP2;ratioP2;P2;SDS_P1;SDS_P2;PMS_P1;PMS_P2;Temp;Humidity;BMP_temperature;BMP_pressure;BME280_temperature;BME280_humidity;BME280_pressure;Samples;Min_cycle;Max_cycle;Signal;HPM_P1;HPM_P2
2021/12/04 00:00:47;;;;;;;;;2.60;2.60;;;;;10.25;100.00;99589.16;4886623;29;45120;-92
2021/12/04 00:03:14;;;;;;;;;2.00;2.00;;;;;10.35;100.00;99591.00;4887154;29;44801;-94
2021/12/04 00:05:44;;;;;;;;;2.00;2.00;;;;;10.40;100.00;99578.22;4871324;29;44732;-92
2021/12/04 00:08:09;;;;;;;;;2.00;2.00;;;;;10.47;100.00;99582.88;4887001;29;44776;-93
2021/12/04 00:10:35;;;;;;;;;4.00;3.00;;;;;10.49;100.00;99554.38;4869727;29;46159;-92
2021/12/04 00:13:03;;;;;;;;;2.80;2.80;;;;;10.51;100.00;99555.09;4870606;29;44750;-92
2021/12/04 00:15:29;;;;;;;;;1.20;1.20;;;;;10.63;100.00;99557.66;4885879;29;44630;-92
2021/12/04 00:17:57;;;;;;;;;1.00;1.00;;;;;10.67;100.00;99553.75;4885746;29;44835;-92
2021/12/04 00:20:24;;;;;;;;;1.80;1.80;;;;;10.67;100.00;99543.13;4868874;29;45267;-92
2021/12/04 00:22:50;;;;;;;;;0.60;0.60;;;;;10.76;100.00;99547.66;4887065;29;44695;-92
2021/12/04 00:25:16;;;;;;;;;1.00;1.00;;;;;10.76;100.00;99535.19;4870624;29;45394;-93
2021/12/04 00:27:41;;;;;;;;;2.00;1.00;;;;;10.77;100.00;99522.75;4887972;29;44958;-92
2021/12/04 00:30:08;;;;;;;;;1.00;1.00;;;;;10.84;100.00;99531.91;4885090;29;45435;-93
2021/12/04 00:32:41;;;;;;;;;1.40;1.40;;;;;10.89;100.00;99539.47;4884403;29;44701;-93
2021/12/04 00:35:17;;;;;;;;;1.00;0.80;;;;;10.95;100.00;99536.25;4872978;29;44790;-91
2021/12/04 00:38:04;;;;;;;;;1.20;1.20;;;;;10.96;100.00;99529.97;4890600;29;44674;-91
2021/12/04 00:51:25;;;;;;;;;0.00;0.00;;;;;11.15;100.00;99521.22;4890542;29;45236;-87
2021/12/04 00:53:54;;;;;;;;;0.00;0.00;;;;;11.23;100.00;99513.41;4872038;29;45468;-88
2021/12/04 00:56:20;;;;;;;;;0.80;0.80;;;;;11.19;100.00;99502.19;4889731;29;44721;-88
2021/12/04 00:58:46;;;;;;;;;0.00;0.00;;;;;11.30;100.00;99511.88;4871597;29;44813;-88
2021/12/04 01:01:11;;;;;;;;;0.75;0.00;;;;;11.34;100.00;99507.97;4888511;29;45416;-87
2021/12/04 01:03:36;;;;;;;;;0.00;0.00;;;;;11.36;100.00;99497.16;4872731;29;45302;-88
2021/12/04 01:06:02;;;;;;;;;0.50;0.50;;;;;11.39;100.00;99496.91;4888658;29;45534;-87
2021/12/04 01:08:28;;;;;;;;;0.00;0.00;;;;;11.39;100.00;99502.22;4886836;29;45590;-88
2021/12/04 01:10:53;;;;;;;;;0.00;0.00;;;;;11.42;100.00;99502.78;4868626;29;47060;-88
2021/12/04 01:13:20;;;;;;;;;0.00;0.00;;;;;11.46;100.00;99501.53;4886017;29;45431;-88
2021/12/04 01:15:46;;;;;;;;;0.00;0.00;;;;;11.48;100.00;99504.88;4886152;29;45404;-88
2021/12/04 01:18:12;;;;;;;;;0.00;0.00;;;;;11.51;100.00;99496.66;4886466;29;44783;-87
2021/12/04 01:20:39;;;;;;;;;0.00;0.00;;;;;11.50;100.00;99499.44;4869504;29;46573;-88
2021/12/04 01:23:06;;;;;;;;;0.00;0.00;;;;;11.59;100.00;99494.09;4890237;29;44603;-93
2021/12/04 01:25:35;;;;;;;;;0.00;0.00;;;;;11.57;100.00;99504.06;4873528;29;44673;-92
2021/12/04 01:28:03;;;;;;;;;0.00;0.00;;;;;11.57;100.00;99508.53;4874067;29;44838;-92
2021/12/04 01:30:29;;;;;;;;;0.00;0.00;;;;;11.59;100.00;99511.88;4891480;29;45166;-92
2021/12/04 01:32:55;;;;;;;;;0.00;0.00;;;;;11.57;100.00;99503.22;4880331;29;44671;-92
2021/12/04 01:35:20;;;;;;;;;0.00;0.00;;;;;11.59;100.00;99506.56;4878063;29;44680;-93
2021/12/04 01:37:46;;;;;;;;;0.50;0.00;;;;;11.55;100.00;99503.34;4889252;29;44859;-88
2021/12/04 01:40:12;;;;;;;;;1.00;0.00;;;;;11.59;100.00;99509.22;4868816;29;47226;-88
2021/12/04 01:42:37;;;;;;;;;0.00;0.00;;;;;11.58;100.00;99512.88;4893132;29;45369;-88
2021/12/04 01:48:25;;;;;;;;;0.40;0.00;;;;;11.66;100.00;99525.50;4909030;28;44583;-91
2021/12/04 01:54:12;;;;;;;;;0.00;0.00;;;;;11.65;100.00;99513.16;4900094;29;44756;-93
2021/12/04 01:56:40;;;;;;;;;0.00;0.00;;;;;11.67;100.00;99524.50;4899060;29;44674;-92
2021/12/04 01:59:05;;;;;;;;;0.00;0.00;;;;;11.67;100.00;99527.16;4881172;29;44889;-92
2021/12/04 02:01:33;;;;;;;;;0.00;0.00;;;;;11.70;100.00;99525.06;4881256;29;47378;-92
2021/12/04 02:03:59;;;;;;;;;0.00;0.00;;;;;11.72;100.00;99516.94;4873864;29;44716;-93
2021/12/04 02:06:24;;;;;;;;;0.00;0.00;;;;;11.73;100.00;99511.47;4885991;29;44755;-92
2021/12/04 02:08:51;;;;;;;;;0.00;0.00;;;;;11.78;100.00;99521.69;4882424;29;44944;-92
2021/12/04 02:11:17;;;;;;;;;0.00;0.00;;;;;11.82;100.00;99525.81;4900487;29;45286;-94
2021/12/04 02:13:43;;;;;;;;;0.80;0.00;;;;;11.82;100.00;99518.66;4899831;29;44580;-91
2021/12/04 02:16:17;;;;;;;;;0.00;0.00;;;;;11.86;100.00;99508.56;4878139;29;44650;-92
2021/12/04 02:18:43;;;;;;;;;0.00;0.00;;;;;11.90;100.00;99519.78;4884223;29;44828;-91
2021/12/04 02:21:09;;;;;;;;;0.00;0.00;;;;;11.93;100.00;99508.84;4886094;29;45235;-92
2021/12/04 02:23:34;;;;;;;;;0.00;0.00;;;;;11.97;100.00;99497.78;4895206;29;44778;-87
2021/12/04 02:26:00;;;;;;;;;0.00;0.00;;;;;12.03;100.00;99489.19;4889380;29;44662;-86
2021/12/04 02:28:25;;;;;;;;;0.00;0.00;;;;;12.06;100.00;99499.56;4869271;29;45683;-86
2021/12/04 02:30:51;;;;;;;;;0.00;0.00;;;;;12.11;100.00;99499.16;4890473;29;45405;-87
2021/12/04 02:33:18;;;;;;;;;0.00;0.00;;;;;12.14;100.00;99484.72;4890283;29;44823;-86
2021/12/04 02:35:48;;;;;;;;;0.00;0.00;;;;;12.23;100.00;99497.16;4888988;29;44834;-91
2021/12/04 02:38:15;;;;;;;;;0.80;0.00;;;;;12.25;100.00;99495.19;4892868;29;45232;-92
2021/12/04 02:40:43;;;;;;;;;0.00;0.00;;;;;12.25;100.00;99490.72;4877085;29;47454;-93
2021/12/04 02:43:08;;;;;;;;;0.00;0.00;;;;;12.28;100.00;99501.09;4874534;29;44831;-93
2021/12/04 02:45:34;;;;;;;;;0.00;0.00;;;;;12.30;100.00;99468.97;4877226;29;44710;-92
2021/12/04 02:48:01;;;;;;;;;0.00;0.00;;;;;12.31;100.00;99491.97;4876602;29;44985;-91
2021/12/04 02:50:26;;;;;;;;;0.00;0.00;;;;;12.27;100.00;99482.56;4896825;29;45425;-92
2021/12/04 02:52:52;;;;;;;;;0.00;0.00;;;;;12.35;100.00;99494.19;4882276;29;44736;-91
2021/12/04 02:55:18;;;;;;;;;0.00;0.00;;;;;12.38;100.00;99505.53;4882911;29;44714;-93
2021/12/04 02:57:44;;;;;;;;;0.00;0.00;;;;;12.35;100.00;99498.69;4884358;29;44847;-93
2021/12/04 03:00:16;;;;;;;;;0.00;0.00;;;;;12.38;100.00;99506.38;4893687;29;45227;-87
2021/12/04 03:02:42;;;;;;;;;0.00;0.00;;;;;12.39;100.00;99491.25;4871921;29;44938;-85
2021/12/04 03:05:10;;;;;;;;;0.00;0.00;;;;;12.38;100.00;99498.41;4888359;29;44725;-87
2021/12/04 03:07:35;;;;;;;;;0.00;0.00;;;;;12.39;100.00;99508.06;4886539;29;44898;-87
2021/12/04 03:10:01;;;;;;;;;0.00;0.00;;;;;12.42;100.00;99513.09;4884176;29;45419;-86
2021/12/04 03:12:27;;;;;;;;;0.00;0.00;;;;;12.41;100.00;99503.41;4914746;28;44747;-86
2021/12/04 03:14:53;;;;;;;;;0.00;0.00;;;;;12.41;100.00;99498.09;4920148;28;44801;-86
2021/12/04 03:17:23;;;;;;;;;0.00;0.00;;;;;12.38;100.00;99506.38;4920255;28;45494;-87
2021/12/04 03:19:50;;;;;;;;;0.00;0.00;;;;;12.34;100.00;99508.50;4919941;28;45285;-86
2021/12/04 03:22:18;;;;;;;;;0.00;0.00;;;;;12.23;100.00;99503.34;4902969;28;45377;-86
2021/12/04 03:24:43;;;;;;;;;0.00;0.00;;;;;12.21;100.00;99507.97;4920294;28;45299;-86
2021/12/04 03:27:09;;;;;;;;;0.00;0.00;;;;;12.14;100.00;99520.19;4920238;28;44821;-87
2021/12/04 03:29:41;;;;;;;;;0.00;0.00;;;;;12.09;100.00;99527.75;4920034;28;45454;-86
2021/12/04 03:32:19;;;;;;;;;0.00;0.00;;;;;12.01;100.00;99527.59;4919865;28;44823;-87
2021/12/04 03:42:49;;;;;;;;;0.80;0.00;;;;;12.01;100.00;99509.81;4921167;28;45418;-87
2021/12/04 03:45:15;;;;;;;;;0.00;0.00;;;;;12.03;100.00;99501.69;4907827;29;44831;-86
2021/12/04 03:47:45;;;;;;;;;0.00;0.00;;;;;12.06;100.00;99504.06;4883871;29;44937;-86
2021/12/04 03:50:12;;;;;;;;;0.00;0.00;;;;;12.18;100.00;99483.44;4884354;29;45714;-88
2021/12/04 03:52:38;;;;;;;;;0.00;0.00;;;;;12.20;100.00;99486.81;4901230;29;45225;-86
2021/12/04 03:55:05;;;;;;;;;0.25;0.00;;;;;12.28;100.00;99490.44;4901594;29;45438;-88
2021/12/04 03:57:31;;;;;;;;;0.60;0.00;;;;;12.29;100.00;99489.44;4900692;29;45412;-87
2021/12/04 03:59:59;;;;;;;;;0.00;0.00;;;;;12.29;100.00;99494.78;4903936;29;45259;-92
2021/12/04 04:02:26;;;;;;;;;0.00;0.00;;;;;12.32;100.00;99486.47;4912397;29;44701;-91
2021/12/04 04:04:51;;;;;;;;;0.00;0.00;;;;;12.35;100.00;99493.34;4907151;29;44757;-90
2021/12/04 04:07:17;;;;;;;;;0.00;0.00;;;;;12.40;100.00;99488.44;4903988;29;45228;-92
2021/12/04 04:09:42;;;;;;;;;0.00;0.00;;;;;12.38;100.00;99482.41;4907159;29;46544;-87
2021/12/04 04:12:08;;;;;;;;;0.00;0.00;;;;;12.38;100.00;99484.22;4908426;29;45391;-92
2021/12/04 04:14:33;;;;;;;;;0.00;0.00;;;;;12.43;100.00;99489.97;4906085;29;44777;-91
2021/12/04 04:16:59;;;;;;;;;0.00;0.00;;;;;12.41;100.00;99494.59;4905901;29;45224;-94
2021/12/04 04:19:25;;;;;;;;;0.00;0.00;;;;;12.34;100.00;99486.34;4889335;29;45450;-93
2021/12/04 04:21:55;;;;;;;;;4.60;0.20;;;;;12.35;100.00;99502.19;4888527;29;44725;-94
2021/12/04 04:24:21;;;;;;;;;0.00;0.00;;;;;12.33;100.00;99487.34;4903616;29;45228;-92
2021/12/04 04:26:47;;;;;;;;;0.00;0.00;;;;;12.30;100.00;99495.59;4902417;29;45226;-93
2021/12/04 04:29:13;;;;;;;;;0.00;0.00;;;;;12.26;100.00;99499.53;4902797;29;45095;-92
2021/12/04 04:31:47;;;;;;;;;0.00;0.00;;;;;12.25;100.00;99497.88;4885399;29;45331;-87
2021/12/04 04:34:31;;;;;;;;;0.00;0.00;;;;;12.25;100.00;99495.19;4900548;29;44805;-88
2021/12/04 05:15:20;;;;;;;;;0.80;0.00;;;;;12.14;100.00;99455.44;4855276;29;45398;-89
2021/12/04 05:20:38;;;;;;;;;0.00;0.00;;;;;12.11;100.00;99448.56;4896143;29;44660;-90
2021/12/04 05:23:01;;;;;;;;;0.00;0.00;;;;;12.13;100.00;99453.75;4908136;29;46280;-89
2021/12/04 05:25:27;;;;;;;;;1.00;0.00;;;;;12.10;100.00;99454.88;4909514;29;45271;-89
2021/12/04 05:27:53;;;;;;;;;0.80;0.00;;;;;12.10;100.00;99452.22;4892036;29;44702;-89
2021/12/04 05:30:18;;;;;;;;;0.25;0.00;;;;;12.09;100.00;99454.06;4902301;29;44733;-90
2021/12/04 05:32:43;;;;;;;;;1.00;0.00;;;;;12.12;100.00;99450.25;4901203;29;45362;-89
2021/12/04 05:35:09;;;;;;;;;0.50;0.00;;;;;12.10;100.00;99452.22;4884712;29;45387;-90
2021/12/04 05:37:34;;;;;;;;;0.00;0.00;;;;;12.11;100.00;99463.72;4903998;29;44905;-90
2021/12/04 05:40:00;;;;;;;;;0.00;0.00;;;;;12.11;100.00;99461.03;4903107;29;45597;-90
2021/12/04 05:42:26;;;;;;;;;0.00;0.00;;;;;12.12;100.00;99452.91;4888604;29;46989;-90
2021/12/04 05:44:53;;;;;;;;;0.00;0.00;;;;;12.13;100.00;99453.75;4906897;29;44794;-91
2021/12/04 05:47:24;;;;;;;;;0.00;0.00;;;;;12.09;100.00;99448.72;4910481;29;44653;-90
2021/12/04 05:55:18;;;;;;;;;0.00;0.00;;;;;12.08;100.00;99468.31;4909746;29;45298;-89
2021/12/04 05:57:44;;;;;;;;;0.00;0.00;;;;;12.09;100.00;99467.38;4908497;29;45515;-88
2021/12/04 06:00:15;;;;;;;;;0.00;0.00;;;;;12.10;100.00;99473.53;4907457;29;45311;-88
2021/12/04 06:02:40;;;;;;;;;1.00;0.00;;;;;12.11;100.00;99466.38;4892859;29;45740;-87
2021/12/04 06:05:06;;;;;;;;;0.00;0.00;;;;;12.08;100.00;99459.50;4912575;29;44737;-87
2021/12/04 06:07:32;;;;;;;;;0.75;0.75;;;;;12.05;100.00;99463.31;4898863;29;44982;-87
2021/12/04 06:09:57;;;;;;;;;0.00;0.00;;;;;12.04;100.00;99461.63;4913181;29;45554;-88
2021/12/04 06:12:22;;;;;;;;;0.00;0.00;;;;;12.01;100.00;99453.91;4914656;29;45234;-87
2021/12/04 06:14:49;;;;;;;;;0.00;0.00;;;;;12.03;100.00;99459.94;4913689;29;44767;-87
2021/12/04 06:17:15;;;;;;;;;0.00;0.00;;;;;12.01;100.00;99459.25;4912948;29;44798;-87
2021/12/04 06:22:37;;;;;;;;;0.00;0.00;;;;;12.05;100.00;99460.63;4904028;29;45021;-89
2021/12/04 06:25:27;;;;;;;;;0.00;0.00;;;;;12.03;100.00;99457.25;4903951;29;44943;-89
2021/12/04 06:27:53;;;;;;;;;0.00;0.00;;;;;12.01;100.00;99453.91;4902030;29;45502;-89
2021/12/04 06:30:20;;;;;;;;;0.00;0.00;;;;;12.03;100.00;99449.28;4903680;29;44791;-89
2021/12/04 06:32:48;;;;;;;;;0.00;0.00;;;;;12.04;100.00;99439.50;4907041;29;45358;-89
2021/12/04 06:35:18;;;;;;;;;0.00;0.00;;;;;12.07;100.00;99437.38;4904373;29;44733;-89
2021/12/04 06:37:45;;;;;;;;;0.00;0.00;;;;;12.06;100.00;99442.84;4906928;29;44836;-88
2021/12/04 06:40:12;;;;;;;;;0.00;0.00;;;;;12.04;100.00;99435.00;4908398;29;45385;-88
2021/12/04 06:42:39;;;;;;;;;0.00;0.00;;;;;12.09;100.00;99438.06;4904966;29;45471;-88
2021/12/04 06:45:06;;;;;;;;;0.00;0.00;;;;;12.08;100.00;99435.53;4903313;29;44845;-88
2021/12/04 06:47:32;;;;;;;;;0.40;0.20;;;;;12.06;100.00;99435.69;4903315;29;45242;-89
2021/12/04 06:50:05;;;;;;;;;0.00;0.00;;;;;12.06;100.00;99438.34;4904631;29;44959;-88
2021/12/04 06:52:31;;;;;;;;;0.00;0.00;;;;;12.00;100.00;99444.25;4903368;29;45631;-89
2021/12/04 06:55:02;;;;;;;;;0.00;0.00;;;;;12.01;100.00;99439.78;4903583;29;44836;-89
2021/12/04 06:57:29;;;;;;;;;0.00;0.00;;;;;12.01;100.00;99448.59;4905957;29;44777;-90
2021/12/04 06:59:57;;;;;;;;;0.00;0.00;;;;;12.00;100.00;99446.94;4905798;29;44839;-89
2021/12/04 07:02:22;;;;;;;;;0.00;0.00;;;;;12.00;100.00;99443.44;4894315;29;46928;-90
2021/12/04 07:04:48;;;;;;;;;0.75;0.75;;;;;11.94;100.00;99442.19;4912618;29;45217;-89
2021/12/04 07:07:13;;;;;;;;;1.00;1.00;;;;;11.93;100.00;99442.31;4893360;29;45495;-89
2021/12/04 07:09:40;;;;;;;;;1.00;1.00;;;;;11.93;100.00;99444.97;4909873;29;44969;-89
2021/12/04 07:12:06;;;;;;;;;1.00;1.00;;;;;11.91;100.00;99445.13;4908493;29;45253;-89
2021/12/04 07:14:34;;;;;;;;;0.60;0.60;;;;;11.87;100.00;99429.56;4912024;29;45336;-88
2021/12/04 07:17:02;;;;;;;;;1.00;0.80;;;;;11.87;100.00;99437.56;4926109;28;45277;-88
2021/12/04 07:19:28;;;;;;;;;1.80;0.00;;;;;11.83;100.00;99429.84;4924616;28;44889;-87
2021/12/04 07:21:54;;;;;;;;;1.75;0.75;;;;;11.82;100.00;99438.81;4921739;28;45729;-87
2021/12/04 07:24:19;;;;;;;;;0.00;0.00;;;;;11.85;100.00;99435.06;4921531;28;45473;-86
2021/12/04 07:26:44;;;;;;;;;2.00;0.00;;;;;11.88;100.00;99437.41;4921636;28;44697;-89
2021/12/04 07:29:10;;;;;;;;;0.00;0.00;;;;;11.86;100.00;99441.22;4921075;28;45552;-86
2021/12/04 07:31:37;;;;;;;;;1.00;1.00;;;;;11.83;100.00;99431.69;4921296;28;45340;-87
2021/12/04 07:34:03;;;;;;;;;0.00;0.00;;;;;11.86;100.00;99422.59;4926564;28;44833;-90
2021/12/04 07:36:30;;;;;;;;;4.60;1.00;;;;;11.89;100.00;99439.09;4924513;28;44829;-86
2021/12/04 07:38:56;;;;;;;;;1.80;1.80;;;;;11.86;100.00;99443.88;4922574;28;45606;-87
2021/12/04 07:41:21;;;;;;;;;3.25;3.00;;;;;11.84;100.00;99438.66;4926229;28;44927;-89
2021/12/04 07:43:47;;;;;;;;;3.00;3.00;;;;;11.82;100.00;99440.66;4925709;28;44616;-89
2021/12/04 07:46:12;;;;;;;;;3.25;3.25;;;;;11.83;100.00;99445.81;4902626;28;44746;-89
2021/12/04 07:48:37;;;;;;;;;2.25;2.25;;;;;11.84;100.00;99446.66;4896187;29;45365;-88
2021/12/04 07:51:04;;;;;;;;;1.00;1.00;;;;;11.85;100.00;99444.88;4883561;29;45639;-89
2021/12/04 07:53:31;;;;;;;;;2.80;1.40;;;;;11.89;100.00;99451.56;4892585;29;44901;-87
2021/12/04 07:55:57;;;;;;;;;2.20;0.80;;;;;11.90;100.00;99442.59;4884829;29;45476;-87
2021/12/04 07:58:25;;;;;;;;;0.00;0.00;;;;;11.92;100.00;99443.28;4887859;29;45005;-90
2021/12/04 08:00:51;;;;;;;;;0.00;0.00;;;;;11.92;100.00;99432.66;4905084;29;45712;-90
2021/12/04 08:03:16;;;;;;;;;0.00;0.00;;;;;11.96;100.00;99429.56;4902263;29;45358;-87
2021/12/04 08:05:43;;;;;;;;;0.00;0.00;;;;;12.03;100.00;99429.81;4901801;29;45538;-88
2021/12/04 08:08:09;;;;;;;;;0.00;0.00;;;;;12.07;100.00;99413.41;4902231;29;45426;-85
2021/12/04 08:10:34;;;;;;;;;0.00;0.00;;;;;12.17;100.00;99429.34;4902993;29;45405;-85
2021/12/04 08:13:02;;;;;;;;;0.25;0.00;;;;;12.22;100.00;99415.59;4902283;29;44816;-85
2021/12/04 08:15:28;;;;;;;;;0.00;0.00;;;;;12.24;100.00;99393.19;4906215;28;45278;-86
2021/12/04 08:17:54;;;;;;;;;0.00;0.00;;;;;12.29;100.00;99404.22;4925628;28;45225;-86
2021/12/04 08:20:20;;;;;;;;;0.00;0.00;;;;;12.30;100.00;99399.75;4921546;28;45489;-85
2021/12/04 08:22:46;;;;;;;;;0.60;0.00;;;;;12.34;100.00;99407.28;4920773;28;44799;-86
2021/12/04 08:25:17;;;;;;;;;0.00;0.00;;;;;12.34;100.00;99398.47;4920703;28;44823;-85
2021/12/04 08:27:43;;;;;;;;;0.00;0.00;;;;;12.34;100.00;99417.13;4903652;28;45283;-85
2021/12/04 08:30:12;;;;;;;;;0.00;0.00;;;;;12.29;100.00;99427.38;4900082;29;45180;-86
2021/12/04 08:32:38;;;;;;;;;0.00;0.00;;;;;12.15;100.00;99441.97;4900210;29;44893;-84
2021/12/04 08:35:05;;;;;;;;;0.00;0.00;;;;;12.04;100.00;99447.47;4884117;29;45563;-83
2021/12/04 08:37:31;;;;;;;;;0.00;0.00;;;;;11.89;100.00;99430.25;4881175;29;45338;-83
2021/12/04 08:39:56;;;;;;;;;1.00;0.00;;;;;11.83;100.00;99453.81;4880242;29;45222;-83
2021/12/04 08:42:24;;;;;;;;;0.00;0.00;;;;;11.75;100.00;99456.31;4880914;29;44829;-83
2021/12/04 08:44:49;;;;;;;;;0.80;0.00;;;;;11.73;100.00;99449.44;4880817;29;45381;-83
2021/12/04 08:47:15;;;;;;;;;0.00;0.00;;;;;11.73;100.00;99454.78;4869773;29;45291;-84
2021/12/04 08:49:40;;;;;;;;;1.00;0.00;;;;;11.69;100.00;99440.06;4902664;29;45342;-83
2021/12/04 08:52:08;;;;;;;;;0.00;0.00;;;;;11.67;100.00;99450.84;4902873;29;45211;-83
2021/12/04 08:54:34;;;;;;;;;0.00;0.00;;;;;11.68;100.00;99428.59;4902430;29;45240;-83
2021/12/04 08:56:59;;;;;;;;;0.00;0.00;;;;;11.70;100.00;99465.69;4901474;29;45538;-84
2021/12/04 08:59:25;;;;;;;;;0.75;0.00;;;;;11.63;100.00;99473.41;4899361;29;45073;-83
2021/12/04 09:01:51;;;;;;;;;0.00;0.00;;;;;11.58;100.00;99468.50;4899512;29;44817;-82
2021/12/04 09:04:20;;;;;;;;;0.00;0.00;;;;;11.41;100.00;99474.53;4900732;29;44863;-84
2021/12/04 09:06:47;;;;;;;;;1.00;0.00;;;;;11.32;100.00;99478.03;4901856;29;45416;-83
2021/12/04 09:09:15;;;;;;;;;1.80;0.00;;;;;11.17;100.00;99490.00;4906046;29;46107;-86
2021/12/04 09:11:53;;;;;;;;;0.00;0.00;;;;;11.06;100.00;99490.97;4908281;29;45358;-85
2021/12/04 09:14:24;;;;;;;;;0.60;0.00;;;;;10.99;100.00;99500.47;4905527;28;45243;-86
2021/12/04 09:16:52;;;;;;;;;2.00;0.00;;;;;10.94;100.00;99497.38;4905069;29;44906;-85
2021/12/04 09:19:18;;;;;;;;;0.40;0.00;;;;;10.91;100.00;99505.63;4887014;29;46804;-87
2021/12/04 09:21:45;;;;;;;;;0.00;0.00;;;;;10.91;100.00;99503.78;4903517;29;45448;-84
2021/12/04 09:24:14;;;;;;;;;0.40;0.00;;;;;10.90;100.00;99501.28;4903845;29;45273;-86
2021/12/04 09:59:19;;;;;;;;;0.00;0.00;;;;;11.10;100.00;99518.97;4904742;29;45678;-85
2021/12/04 10:34:43;;;;;;;;;1.60;0.00;;;;;10.94;100.00;99580.59;4903753;28;45690;-85
2021/12/04 10:37:13;;;;;;;;;0.00;0.00;;;;;10.95;100.00;99578.78;4904271;29;45329;-85
2021/12/04 10:39:40;;;;;;;;;0.00;0.00;;;;;10.81;100.00;99591.44;4895539;29;44666;-84
2021/12/04 10:42:15;;;;;;;;;0.40;0.00;;;;;10.79;100.00;99590.75;4893814;29;45524;-86
2021/12/04 10:44:47;;;;;;;;;1.00;1.00;;;;;10.84;100.00;99594.81;4892827;29;45700;-84
2021/12/04 10:47:15;;;;;;;;;1.00;1.00;;;;;10.76;100.00;99579.53;4893456;29;44840;-83
2021/12/04 11:04:13;;;;;;;;;0.00;0.00;;;;;10.42;100.00;99602.81;4859963;29;45277;-85
2021/12/04 11:39:44;;;;;;;;;2.00;1.00;;;;;8.97;100.00;99713.47;4890852;29;45201;-87
2021/12/04 11:47:16;;;;;;;;;1.20;1.20;;;;;8.70;100.00;99704.03;4896119;29;45259;-85
2021/12/04 11:49:41;;;;;;;;;1.75;1.75;;;;;8.55;100.00;99704.34;4895062;29;45159;-87
2021/12/04 11:52:18;;;;;;;;;2.00;2.00;;;;;8.48;100.00;99701.31;4889260;29;44671;-87
2021/12/04 11:54:52;;;;;;;;;2.40;2.40;;;;;8.46;100.00;99705.88;4884370;29;45510;-86
2021/12/04 11:57:30;;;;;;;;;1.60;1.60;;;;;8.44;100.00;99711.28;4887557;29;45364;-86
2021/12/04 12:00:17;;;;;;;;;4.00;1.40;;;;;8.46;100.00;99717.31;4904438;29;45427;-85
2021/12/04 12:02:44;;;;;;;;;1.40;1.40;;;;;8.50;100.00;99710.81;4886786;29;45425;-86
2021/12/04 12:05:17;;;;;;;;;1.60;1.60;;;;;8.59;100.00;99714.59;4900636;29;45229;-87
2021/12/04 12:07:56;;;;;;;;;3.00;3.00;;;;;8.68;100.00;99718.34;4889551;29;45320;-87
2021/12/04 12:10:26;;;;;;;;;3.00;1.75;;;;;8.66;100.00;99702.59;4896648;29;45705;-86
2021/12/04 12:12:56;;;;;;;;;3.00;3.00;;;;;8.69;100.00;99712.09;4894193;29;45503;-87
2021/12/04 12:15:32;;;;;;;;;2.20;0.80;;;;;8.72;100.00;99714.50;4901754;29;44861;-86
2021/12/04 12:18:12;;;;;;;;;3.50;3.50;;;;;8.73;100.00;99711.75;4899254;29;44711;-87
2021/12/04 12:20:56;;;;;;;;;6.00;4.00;;;;;8.77;100.00;99700.94;4902649;29;45478;-85
2021/12/04 12:23:25;;;;;;;;;2.80;1.80;;;;;8.79;100.00;99707.78;4889851;29;45502;-86
2021/12/04 12:26:14;;;;;;;;;5.20;4.00;;;;;8.88;100.00;99725.63;4902563;29;44689;-86
2021/12/04 12:37:24;;;;;;;;;5.20;2.00;;;;;8.87;100.00;99760.19;4906433;29;44695;-87
2021/12/04 12:40:08;;;;;;;;;4.00;2.00;;;;;8.85;100.00;99757.66;4905964;29;45640;-85
2021/12/04 12:42:37;;;;;;;;;4.00;3.00;;;;;8.89;100.00;99768.84;4901081;29;45094;-86
2021/12/04 12:45:32;;;;;;;;;3.80;3.80;;;;;8.95;100.00;99763.94;4904690;29;45259;-89
2021/12/04 12:48:07;;;;;;;;;3.80;2.80;;;;;9.09;100.00;99781.44;4907080;29;45339;-89
2021/12/04 12:50:43;;;;;;;;;5.75;2.25;;;;;9.16;100.00;99780.00;4906396;29;44754;-88
2021/12/04 12:53:19;;;;;;;;;6.00;3.00;;;;;9.27;100.00;99781.81;4907605;29;45421;-88
2021/12/04 12:55:48;;;;;;;;;9.80;5.20;;;;;9.37;100.00;99781.94;4911030;29;45243;-88
2021/12/04 12:58:31;;;;;;;;;8.20;6.00;;;;;9.42;100.00;99790.38;4904928;29;45164;-89
2021/12/04 13:12:46;;;;;;;;;4.00;3.25;;;;;9.09;100.00;99805.28;4893352;29;44803;-88
2021/12/04 13:15:28;;;;;;;;;3.80;3.00;;;;;8.92;100.00;99805.69;4901741;29;45565;-90
2021/12/04 13:17:54;;;;;;;;;3.00;2.20;;;;;8.89;100.00;99804.09;4906874;29;44714;-90
2021/12/04 13:20:21;;;;;;;;;4.40;2.80;;;;;8.95;100.00;99802.81;4908003;29;44648;-89
2021/12/04 13:22:48;;;;;;;;;4.75;3.00;;;;;8.92;100.00;99781.84;4908668;29;44917;-90
2021/12/04 13:25:14;;;;;;;;;5.40;3.00;;;;;9.00;100.00;99792.72;4906900;29;45317;-88
2021/12/04 13:30:12;;;;;;;;;4.00;4.00;;;;;8.96;100.00;99784.16;4891170;29;45256;-90
2021/12/04 13:32:40;;;;;;;;;5.00;3.50;;;;;8.98;100.00;99803.41;4878771;29;45269;-89
2021/12/04 13:35:18;;;;;;;;;4.00;1.25;;;;;9.00;100.00;99800.69;4905059;29;45403;-89
2021/12/04 13:37:43;;;;;;;;;4.00;4.00;;;;;8.95;100.00;99810.78;4889447;29;44789;-90
2021/12/04 13:40:13;;;;;;;;;7.50;3.25;;;;;8.95;100.00;99827.50;4872463;29;44644;-89
2021/12/04 13:42:40;;;;;;;;;3.00;2.00;;;;;8.98;100.00;99819.31;4904590;29;44941;-89
2021/12/04 13:45:09;;;;;;;;;2.80;1.80;;;;;8.93;100.00;99804.72;4892772;29;45845;-90
2021/12/04 13:47:35;;;;;;;;;3.00;2.00;;;;;8.92;100.00;99808.34;4886199;29;44603;-90
2021/12/04 13:50:01;;;;;;;;;6.25;2.25;;;;;8.80;100.00;99810.13;4870466;29;44705;-90
2021/12/04 13:52:31;;;;;;;;;5.50;5.50;;;;;8.88;100.00;99796.28;4892846;29;44853;-89
2021/12/04 13:55:10;;;;;;;;;4.40;3.80;;;;;8.85;100.00;99784.13;4889767;29;45147;-89
2021/12/04 13:57:41;;;;;;;;;7.60;3.40;;;;;8.98;100.00;99800.78;4888913;29;44718;-89
2021/12/04 14:00:11;;;;;;;;;1.20;0.00;;;;;8.94;100.00;99801.94;4889967;29;44831;-89
2021/12/04 14:02:37;;;;;;;;;5.50;3.00;;;;;9.05;100.00;99803.81;4873656;29;44958;-89
2021/12/04 14:05:10;;;;;;;;;8.25;3.00;;;;;9.11;100.00;99806.00;4890783;29;45194;-90
2021/12/04 14:07:36;;;;;;;;;4.20;2.60;;;;;9.08;100.00;99800.06;4891346;29;44742;-90
2021/12/04 14:10:17;;;;;;;;;3.00;2.00;;;;;8.97;100.00;99795.59;4893354;29;44627;-90
2021/12/04 14:12:43;;;;;;;;;2.75;2.00;;;;;8.95;100.00;99789.59;4910928;29;45316;-89
2021/12/04 14:15:11;;;;;;;;;5.75;3.25;;;;;8.86;100.00;99819.41;4911842;29;45453;-86
2021/12/04 14:17:37;;;;;;;;;1.00;0.00;;;;;8.84;100.00;99810.72;4912630;29;44674;-85
2021/12/04 14:20:06;;;;;;;;;4.75;3.75;;;;;8.80;100.00;99819.84;4907794;29;45225;-86
2021/12/04 14:22:31;;;;;;;;;6.25;3.50;;;;;8.80;100.00;99827.78;4877889;29;45442;-86
2021/12/04 14:25:01;;;;;;;;;5.00;4.50;;;;;8.84;100.00;99837.19;4912405;29;45215;-85
2021/12/04 14:27:30;;;;;;;;;6.60;3.60;;;;;8.77;100.00;99835.97;4896337;29;45421;-85
2021/12/04 14:30:00;;;;;;;;;3.80;3.60;;;;;8.71;100.00;99839.94;4900978;29;44754;-86
2021/12/04 14:32:30;;;;;;;;;5.25;3.00;;;;;8.66;100.00;99832.31;4916538;29;44700;-85
2021/12/04 14:38:21;;;;;;;;;3.20;3.20;;;;;8.71;100.00;99843.41;4897209;29;44622;-85
2021/12/04 14:40:58;;;;;;;;;6.20;2.20;;;;;8.72;100.00;99854.84;4902400;29;44795;-85
2021/12/04 14:43:28;;;;;;;;;3.00;3.00;;;;;8.72;100.00;99852.19;4902505;29;44695;-86
2021/12/04 14:45:56;;;;;;;;;3.50;3.00;;;;;8.64;100.00;99854.56;4903246;29;45536;-86
2021/12/04 14:48:30;;;;;;;;;3.80;1.60;;;;;8.66;100.00;99865.91;4902543;29;45266;-85
2021/12/04 14:51:04;;;;;;;;;5.20;2.20;;;;;8.58;100.00;99879.69;4887819;29;45309;-85
2021/12/04 14:53:30;;;;;;;;;5.75;3.50;;;;;8.62;100.00;99869.72;4907507;29;44810;-86
2021/12/04 14:55:56;;;;;;;;;3.80;1.40;;;;;8.55;100.00;99887.81;4904807;29;45331;-85
2021/12/04 14:58:23;;;;;;;;;4.25;3.25;;;;;8.53;100.00;99883.63;4882751;29;44783;-85
2021/12/04 15:00:59;;;;;;;;;1.60;1.40;;;;;8.56;100.00;99907.19;4889980;29;45524;-84
2021/12/04 15:03:33;;;;;;;;;2.75;2.00;;;;;8.52;100.00;99900.47;4890838;29;44759;-85
2021/12/04 15:06:01;;;;;;;;;3.40;2.60;;;;;8.53;100.00;99904.78;4898884;29;45140;-85
2021/12/04 15:08:36;;;;;;;;;3.60;2.00;;;;;8.48;100.00;99932.44;4901425;29;45535;-85
2021/12/04 15:11:09;;;;;;;;;6.60;3.00;;;;;8.47;100.00;99912.22;4902552;29;44724;-86